sensor_id;sensor_type;location;lat;lon;timestamp;temperature;humidity
23629;DHT22;11991;57.150;-2.134;2023-05-10T00:00:48;10.90;99.90
23629;DHT22;11991;57.150;-2.134;2023-05-10T00:03:15;10.90;99.90
23629;DHT22;11991;57.150;-2.134;2023-05-10T00:05:42;10.80;99.90
23629;DHT22;11991;57.150;-2.134;2023-05-10T00:08:09;10.70;99.90
23629;DHT22;11991;57.150;-2.134;2023-05-10T00:10:36;10.70;99.90
23629;DHT22;11991;57.150;-2.134;2023-05-10T00:13:04;10.70;99.90
23629;DHT22;11991;57.150;-2.134;2023-05-10T00:15:31;10.60;99.90
23629;DHT22;11991;57.150;-2.134;2023-05-10T00:17:58;10.50;99.90
23629;DHT22;11991;57.150;-2.134;2023-05-10T00:20:25;10.50;99.90
23629;DHT22;11991;57.150;-2.134;2023-05-10T00:22:52;10.50;99.90
23629;DHT22;11991;57.150;-2.134;2023-05-10T00:25:19;10.60;99.90
23629;DHT22;11991;57.150;-2.134;2023-05-10T00:27:48;10.70;99.90
23629;DHT22;11991;57.150;-2.134;2023-05-10T00:30:16;10.70;99.90
23629;DHT22;11991;57.150;-2.134;2023-05-10T00:32:44;10.70;99.90
23629;DHT22;11991;57.150;-2.134;2023-05-10T00:35:11;10.70;99.90
23629;DHT22;11991;57.150;-2.134;2023-05-10T00:37:38;10.70;99.90
23629;DHT22;11991;57.150;-2.134;2023-05-10T00:40:06;10.70;99.90
23629;DHT22;11991;57.150;-2.134;2023-05-10T00:42:33;10.70;99.90
23629;DHT22;11991;57.150;-2.134;2023-05-10T00:45:00;10.80;99.90
23629;DHT22;11991;57.150;-2.134;2023-05-10T00:47:29;10.80;99.90
23629;DHT22;11991;57.150;-2.134;2023-05-10T00:49:56;10.80;99.90
23629;DHT22;11991;57.150;-2.134;2023-05-10T00:52:25;10.80;99.90
23629;DHT22;11991;57.150;-2.134;2023-05-10T00:54:53;10.80;99.90
23629;DHT22;11991;57.150;-2.134;2023-05-10T00:57:21;10.80;99.90
23629;DHT22;11991;57.150;-2.134;2023-05-10T00:59:48;10.80;99.90
23629;DHT22;11991;57.150;-2.134;2023-05-10T01:02:15;10.70;99.90
23629;DHT22;11991;57.150;-2.134;2023-05-10T01:04:43;10.70;99.90
23629;DHT22;11991;57.150;-2.134;2023-05-10T01:07:10;10.60;99.90
23629;DHT22;11991;57.150;-2.134;2023-05-10T01:09:37;10.60;99.90
23629;DHT22;11991;57.150;-2.134;2023-05-10T01:12:05;10.60;99.90
23629;DHT22;11991;57.150;-2.134;2023-05-10T01:14:34;10.60;99.90
23629;DHT22;11991;57.150;-2.134;2023-05-10T01:17:04;10.70;99.90
23629;DHT22;11991;57.150;-2.134;2023-05-10T01:19:33;10.70;99.90
23629;DHT22;11991;57.150;-2.134;2023-05-10T01:22:36;10.80;99.90
23629;DHT22;11991;57.150;-2.134;2023-05-10T01:38:51;10.90;99.90
23629;DHT22;11991;57.150;-2.134;2023-05-10T01:44:20;11.00;99.90
23629;DHT22;11991;57.150;-2.134;2023-05-10T01:47:04;11.00;99.90
23629;DHT22;11991;57.150;-2.134;2023-05-10T01:49:39;11.00;99.90
23629;DHT22;11991;57.150;-2.134;2023-05-10T01:52:12;11.00;99.90
23629;DHT22;11991;57.150;-2.134;2023-05-10T01:54:43;10.90;99.90
23629;DHT22;11991;57.150;-2.134;2023-05-10T01:57:13;10.90;99.90
23629;DHT22;11991;57.150;-2.134;2023-05-10T01:59:43;10.90;99.90
23629;DHT22;11991;57.150;-2.134;2023-05-10T02:02:13;10.90;99.90
23629;DHT22;11991;57.150;-2.134;2023-05-10T02:04:42;11.00;99.90
23629;DHT22;11991;57.150;-2.134;2023-05-10T02:07:10;10.90;99.90
23629;DHT22;11991;57.150;-2.134;2023-05-10T02:09:38;10.90;99.90
23629;DHT22;11991;57.150;-2.134;2023-05-10T02:12:06;11.00;99.90
23629;DHT22;11991;57.150;-2.134;2023-05-10T02:14:36;11.00;99.90
23629;DHT22;11991;57.150;-2.134;2023-05-10T02:17:05;11.00;99.90
23629;DHT22;11991;57.150;-2.134;2023-05-10T02:19:36;11.00;99.90
23629;DHT22;11991;57.150;-2.134;2023-05-10T02:22:05;11.00;99.90
23629;DHT22;11991;57.150;-2.134;2023-05-10T02:24:33;11.00;99.90
23629;DHT22;11991;57.150;-2.134;2023-05-10T02:27:02;11.00;99.90
23629;DHT22;11991;57.150;-2.134;2023-05-10T02:29:31;11.00;99.90
23629;DHT22;11991;57.150;-2.134;2023-05-10T02:32:00;10.90;99.90
23629;DHT22;11991;57.150;-2.134;2023-05-10T02:34:27;10.90;99.90
23629;DHT22;11991;57.150;-2.134;2023-05-10T02:36:55;10.90;99.90
23629;DHT22;11991;57.150;-2.134;2023-05-10T02:39:24;10.80;99.90
23629;DHT22;11991;57.150;-2.134;2023-05-10T02:41:53;10.80;99.90
23629;DHT22;11991;57.150;-2.134;2023-05-10T02:44:22;10.80;99.90
23629;DHT22;11991;57.150;-2.134;2023-05-10T02:46:50;10.80;99.90
23629;DHT22;11991;57.150;-2.134;2023-05-10T02:49:18;10.80;99.90
23629;DHT22;11991;57.150;-2.134;2023-05-10T02:51:58;10.80;99.90
23629;DHT22;11991;57.150;-2.134;2023-05-10T02:54:30;10.80;99.90
23629;DHT22;11991;57.150;-2.134;2023-05-10T02:57:00;10.80;99.90
23629;DHT22;11991;57.150;-2.134;2023-05-10T02:59:30;10.70;99.90
23629;DHT22;11991;57.150;-2.134;2023-05-10T03:01:58;10.70;99.90
23629;DHT22;11991;57.150;-2.134;2023-05-10T03:04:26;10.70;99.90
23629;DHT22;11991;57.150;-2.134;2023-05-10T03:06:55;10.70;99.90
23629;DHT22;11991;57.150;-2.134;2023-05-10T03:09:22;10.70;99.90
23629;DHT22;11991;57.150;-2.134;2023-05-10T03:17:30;10.70;99.90
23629;DHT22;11991;57.150;-2.134;2023-05-10T03:20:08;10.70;99.90
23629;DHT22;11991;57.150;-2.134;2023-05-10T03:22:41;10.70;99.90
23629;DHT22;11991;57.150;-2.134;2023-05-10T03:25:11;10.70;99.90
23629;DHT22;11991;57.150;-2.134;2023-05-10T03:27:41;10.70;99.90
23629;DHT22;11991;57.150;-2.134;2023-05-10T03:30:11;10.70;99.90
23629;DHT22;11991;57.150;-2.134;2023-05-10T03:32:39;10.60;99.90
23629;DHT22;11991;57.150;-2.134;2023-05-10T03:35:11;10.60;99.90
23629;DHT22;11991;57.150;-2.134;2023-05-10T03:37:39;10.60;99.90
23629;DHT22;11991;57.150;-2.134;2023-05-10T03:40:07;10.60;99.90
23629;DHT22;11991;57.150;-2.134;2023-05-10T03:42:36;10.60;99.90
23629;DHT22;11991;57.150;-2.134;2023-05-10T03:45:04;10.60;99.90
23629;DHT22;11991;57.150;-2.134;2023-05-10T03:47:31;10.60;99.90
23629;DHT22;11991;57.150;-2.134;2023-05-10T03:49:58;10.60;99.90
23629;DHT22;11991;57.150;-2.134;2023-05-10T03:52:26;10.60;99.90
23629;DHT22;11991;57.150;-2.134;2023-05-10T03:54:53;10.60;99.90
23629;DHT22;11991;57.150;-2.134;2023-05-10T03:57:20;10.60;99.90
23629;DHT22;11991;57.150;-2.134;2023-05-10T03:59:47;10.60;99.90
23629;DHT22;11991;57.150;-2.134;2023-05-10T04:02:14;10.60;99.90
23629;DHT22;11991;57.150;-2.134;2023-05-10T04:04:41;10.60;99.90
23629;DHT22;11991;57.150;-2.134;2023-05-10T04:07:08;10.60;99.90
23629;DHT22;11991;57.150;-2.134;2023-05-10T04:09:37;10.60;99.90
23629;DHT22;11991;57.150;-2.134;2023-05-10T04:12:04;10.60;99.90
23629;DHT22;11991;57.150;-2.134;2023-05-10T04:14:34;10.60;99.90
23629;DHT22;11991;57.150;-2.134;2023-05-10T04:17:01;10.60;99.90
23629;DHT22;11991;57.150;-2.134;2023-05-10T04:19:31;10.60;99.90
23629;DHT22;11991;57.150;-2.134;2023-05-10T04:21:58;10.70;99.90
23629;DHT22;11991;57.150;-2.134;2023-05-10T04:24:26;10.70;99.90
23629;DHT22;11991;57.150;-2.134;2023-05-10T04:26:54;10.70;99.90
23629;DHT22;11991;57.150;-2.134;2023-05-10T04:29:23;10.70;99.90
23629;DHT22;11991;57.150;-2.134;2023-05-10T04:31:50;10.70;99.90
23629;DHT22;11991;57.150;-2.134;2023-05-10T04:34:17;10.70;99.90
23629;DHT22;11991;57.150;-2.134;2023-05-10T04:36:45;10.70;99.90
23629;DHT22;11991;57.150;-2.134;2023-05-10T04:39:12;10.60;99.90
23629;DHT22;11991;57.150;-2.134;2023-05-10T04:41:40;10.60;99.90
23629;DHT22;11991;57.150;-2.134;2023-05-10T04:44:07;10.60;99.90
23629;DHT22;11991;57.150;-2.134;2023-05-10T04:46:34;10.60;99.90
23629;DHT22;11991;57.150;-2.134;2023-05-10T04:49:01;10.60;99.90
23629;DHT22;11991;57.150;-2.134;2023-05-10T04:51:28;10.60;99.90
23629;DHT22;11991;57.150;-2.134;2023-05-10T04:53:55;10.60;99.90
23629;DHT22;11991;57.150;-2.134;2023-05-10T04:56:32;10.50;99.90
23629;DHT22;11991;57.150;-2.134;2023-05-10T04:59:00;10.50;99.90
23629;DHT22;11991;57.150;-2.134;2023-05-10T05:01:27;10.50;99.90
23629;DHT22;11991;57.150;-2.134;2023-05-10T05:03:54;10.50;99.90
23629;DHT22;11991;57.150;-2.134;2023-05-10T05:06:21;10.50;99.90
23629;DHT22;11991;57.150;-2.134;2023-05-10T05:08:48;10.40;99.90
23629;DHT22;11991;57.150;-2.134;2023-05-10T05:11:17;10.40;99.90
23629;DHT22;11991;57.150;-2.134;2023-05-10T05:13:44;10.40;99.90
23629;DHT22;11991;57.150;-2.134;2023-05-10T05:16:11;10.30;99.90
23629;DHT22;11991;57.150;-2.134;2023-05-10T05:18:38;10.30;99.90
23629;DHT22;11991;57.150;-2.134;2023-05-10T05:21:15;10.30;99.90
23629;DHT22;11991;57.150;-2.134;2023-05-10T05:23:43;10.30;99.90
23629;DHT22;11991;57.150;-2.134;2023-05-10T05:26:10;10.40;99.90
23629;DHT22;11991;57.150;-2.134;2023-05-10T05:28:37;10.30;99.90
23629;DHT22;11991;57.150;-2.134;2023-05-10T05:31:05;10.30;99.90
23629;DHT22;11991;57.150;-2.134;2023-05-10T05:33:32;10.20;99.90
23629;DHT22;11991;57.150;-2.134;2023-05-10T05:36:03;10.20;99.90
23629;DHT22;11991;57.150;-2.134;2023-05-10T05:38:31;10.20;99.90
23629;DHT22;11991;57.150;-2.134;2023-05-10T05:40:58;10.20;99.90
23629;DHT22;11991;57.150;-2.134;2023-05-10T05:43:25;10.30;99.90
23629;DHT22;11991;57.150;-2.134;2023-05-10T05:45:52;10.30;99.90
23629;DHT22;11991;57.150;-2.134;2023-05-10T05:48:21;10.30;99.90
23629;DHT22;11991;57.150;-2.134;2023-05-10T05:50:48;10.30;99.90
23629;DHT22;11991;57.150;-2.134;2023-05-10T05:53:15;10.30;99.90
23629;DHT22;11991;57.150;-2.134;2023-05-10T05:55:53;10.30;99.90
23629;DHT22;11991;57.150;-2.134;2023-05-10T05:58:21;10.30;99.90
23629;DHT22;11991;57.150;-2.134;2023-05-10T06:00:50;10.40;99.90
23629;DHT22;11991;57.150;-2.134;2023-05-10T06:03:17;10.40;99.90
23629;DHT22;11991;57.150;-2.134;2023-05-10T06:05:44;10.40;99.90
23629;DHT22;11991;57.150;-2.134;2023-05-10T06:08:11;10.30;99.90
23629;DHT22;11991;57.150;-2.134;2023-05-10T06:10:38;10.30;99.90
23629;DHT22;11991;57.150;-2.134;2023-05-10T06:13:05;10.30;99.90
23629;DHT22;11991;57.150;-2.134;2023-05-10T06:15:32;10.30;99.90
23629;DHT22;11991;57.150;-2.134;2023-05-10T06:18:00;10.40;99.90
23629;DHT22;11991;57.150;-2.134;2023-05-10T06:20:27;10.40;99.90
23629;DHT22;11991;57.150;-2.134;2023-05-10T06:22:54;10.40;99.90
23629;DHT22;11991;57.150;-2.134;2023-05-10T06:25:21;10.50;99.90
23629;DHT22;11991;57.150;-2.134;2023-05-10T06:27:48;10.50;99.90
23629;DHT22;11991;57.150;-2.134;2023-05-10T06:30:19;10.50;99.90
23629;DHT22;11991;57.150;-2.134;2023-05-10T06:32:47;10.50;99.90
23629;DHT22;11991;57.150;-2.134;2023-05-10T06:35:14;10.50;99.90
23629;DHT22;11991;57.150;-2.134;2023-05-10T06:37:41;10.50;99.90
23629;DHT22;11991;57.150;-2.134;2023-05-10T06:40:08;10.60;99.90
23629;DHT22;11991;57.150;-2.134;2023-05-10T06:42:36;10.60;99.90
23629;DHT22;11991;57.150;-2.134;2023-05-10T06:45:03;10.60;99.90
23629;DHT22;11991;57.150;-2.134;2023-05-10T06:47:30;10.60;99.90
23629;DHT22;11991;57.150;-2.134;2023-05-10T06:49:58;10.70;99.90
23629;DHT22;11991;57.150;-2.134;2023-05-10T06:52:25;10.60;99.90
23629;DHT22;11991;57.150;-2.134;2023-05-10T06:54:52;10.60;99.90
23629;DHT22;11991;57.150;-2.134;2023-05-10T06:57:19;10.70;99.90
23629;DHT22;11991;57.150;-2.134;2023-05-10T06:59:58;10.60;99.90
23629;DHT22;11991;57.150;-2.134;2023-05-10T07:02:25;10.60;99.90
23629;DHT22;11991;57.150;-2.134;2023-05-10T07:04:53;10.60;99.90
23629;DHT22;11991;57.150;-2.134;2023-05-10T07:07:21;10.60;99.90
23629;DHT22;11991;57.150;-2.134;2023-05-10T07:09:48;10.50;99.90
23629;DHT22;11991;57.150;-2.134;2023-05-10T07:12:16;10.60;99.90
23629;DHT22;11991;57.150;-2.134;2023-05-10T07:14:43;10.60;99.90
23629;DHT22;11991;57.150;-2.134;2023-05-10T07:17:10;10.60;99.90
23629;DHT22;11991;57.150;-2.134;2023-05-10T07:19:38;10.60;99.90
23629;DHT22;11991;57.150;-2.134;2023-05-10T07:22:05;10.70;99.90
23629;DHT22;11991;57.150;-2.134;2023-05-10T07:24:33;10.70;99.90
23629;DHT22;11991;57.150;-2.134;2023-05-10T07:27:00;10.70;99.90
23629;DHT22;11991;57.150;-2.134;2023-05-10T07:29:27;10.70;99.90
23629;DHT22;11991;57.150;-2.134;2023-05-10T07:31:55;10.70;99.90
23629;DHT22;11991;57.150;-2.134;2023-05-10T07:34:24;10.80;99.90
23629;DHT22;11991;57.150;-2.134;2023-05-10T07:36:52;10.80;99.90
23629;DHT22;11991;57.150;-2.134;2023-05-10T07:39:19;10.80;99.90
23629;DHT22;11991;57.150;-2.134;2023-05-10T07:41:56;10.80;99.90
23629;DHT22;11991;57.150;-2.134;2023-05-10T07:44:23;10.80;99.90
23629;DHT22;11991;57.150;-2.134;2023-05-10T07:46:50;10.80;99.90
23629;DHT22;11991;57.150;-2.134;2023-05-10T07:49:18;10.90;99.90
23629;DHT22;11991;57.150;-2.134;2023-05-10T07:51:45;10.90;99.90
23629;DHT22;11991;57.150;-2.134;2023-05-10T07:54:12;10.90;99.90
23629;DHT22;11991;57.150;-2.134;2023-05-10T07:56:39;10.90;99.90
23629;DHT22;11991;57.150;-2.134;2023-05-10T07:59:08;11.00;99.90
23629;DHT22;11991;57.150;-2.134;2023-05-10T08:01:38;11.00;99.90
23629;DHT22;11991;57.150;-2.134;2023-05-10T08:04:05;11.00;99.90
23629;DHT22;11991;57.150;-2.134;2023-05-10T08:06:32;11.00;99.90
23629;DHT22;11991;57.150;-2.134;2023-05-10T08:08:59;11.00;99.90
23629;DHT22;11991;57.150;-2.134;2023-05-10T08:11:26;11.00;99.90
23629;DHT22;11991;57.150;-2.134;2023-05-10T08:13:59;11.00;99.90
23629;DHT22;11991;57.150;-2.134;2023-05-10T08:16:26;11.00;99.90
23629;DHT22;11991;57.150;-2.134;2023-05-10T08:18:53;11.00;99.90
23629;DHT22;11991;57.150;-2.134;2023-05-10T08:21:22;11.00;99.90
23629;DHT22;11991;57.150;-2.134;2023-05-10T08:23:49;11.00;99.90
23629;DHT22;11991;57.150;-2.134;2023-05-10T08:26:16;11.10;99.90
23629;DHT22;11991;57.150;-2.134;2023-05-10T08:28:43;11.20;99.90
23629;DHT22;11991;57.150;-2.134;2023-05-10T08:31:10;11.20;99.90
23629;DHT22;11991;57.150;-2.134;2023-05-10T08:33:37;11.20;99.90
23629;DHT22;11991;57.150;-2.134;2023-05-10T08:36:05;11.30;99.90
23629;DHT22;11991;57.150;-2.134;2023-05-10T08:38:32;11.30;99.90
23629;DHT22;11991;57.150;-2.134;2023-05-10T08:41:00;11.30;99.90
23629;DHT22;11991;57.150;-2.134;2023-05-10T08:43:29;11.30;99.90
23629;DHT22;11991;57.150;-2.134;2023-05-10T08:46:00;11.20;99.90
23629;DHT22;11991;57.150;-2.134;2023-05-10T08:48:30;11.20;99.90
23629;DHT22;11991;57.150;-2.134;2023-05-10T08:51:00;11.20;99.90
23629;DHT22;11991;57.150;-2.134;2023-05-10T08:53:29;11.30;99.90
23629;DHT22;11991;57.150;-2.134;2023-05-10T08:55:57;11.30;99.90
23629;DHT22;11991;57.150;-2.134;2023-05-10T08:58:25;11.40;99.90
23629;DHT22;11991;57.150;-2.134;2023-05-10T09:00:52;11.50;99.90
23629;DHT22;11991;57.150;-2.134;2023-05-10T09:03:20;11.50;99.90
23629;DHT22;11991;57.150;-2.134;2023-05-10T09:05:48;11.60;99.90
23629;DHT22;11991;57.150;-2.134;2023-05-10T09:08:16;11.60;99.90
23629;DHT22;11991;57.150;-2.134;2023-05-10T09:10:44;11.70;99.90
23629;DHT22;11991;57.150;-2.134;2023-05-10T09:13:14;11.70;99.90
23629;DHT22;11991;57.150;-2.134;2023-05-10T09:15:45;11.70;99.90
23629;DHT22;11991;57.150;-2.134;2023-05-10T09:18:12;11.70;99.90
23629;DHT22;11991;57.150;-2.134;2023-05-10T09:20:40;11.70;99.90
23629;DHT22;11991;57.150;-2.134;2023-05-10T09:23:07;11.70;99.90
23629;DHT22;11991;57.150;-2.134;2023-05-10T09:25:34;11.80;99.90
23629;DHT22;11991;57.150;-2.134;2023-05-10T09:28:01;11.80;99.90
23629;DHT22;11991;57.150;-2.134;2023-05-10T09:30:30;11.80;99.90
23629;DHT22;11991;57.150;-2.134;2023-05-10T09:32:59;11.80;99.90
23629;DHT22;11991;57.150;-2.134;2023-05-10T09:35:28;11.80;99.90
23629;DHT22;11991;57.150;-2.134;2023-05-10T09:37:58;11.90;99.90
23629;DHT22;11991;57.150;-2.134;2023-05-10T09:40:27;11.90;99.90
23629;DHT22;11991;57.150;-2.134;2023-05-10T09:42:55;12.00;99.90
23629;DHT22;11991;57.150;-2.134;2023-05-10T09:45:27;12.00;99.90
23629;DHT22;11991;57.150;-2.134;2023-05-10T09:47:56;12.10;99.90
23629;DHT22;11991;57.150;-2.134;2023-05-10T09:50:23;12.10;99.90
23629;DHT22;11991;57.150;-2.134;2023-05-10T09:55:20;12.20;99.90
23629;DHT22;11991;57.150;-2.134;2023-05-10T09:57:49;12.30;99.90
23629;DHT22;11991;57.150;-2.134;2023-05-10T10:00:18;12.30;99.90
23629;DHT22;11991;57.150;-2.134;2023-05-10T10:02:55;12.30;99.90
23629;DHT22;11991;57.150;-2.134;2023-05-10T10:05:32;12.40;99.90
23629;DHT22;11991;57.150;-2.134;2023-05-10T10:08:00;12.40;99.90
23629;DHT22;11991;57.150;-2.134;2023-05-10T10:10:27;12.40;99.90
23629;DHT22;11991;57.150;-2.134;2023-05-10T10:12:55;12.50;99.90
23629;DHT22;11991;57.150;-2.134;2023-05-10T10:15:23;12.50;99.90
23629;DHT22;11991;57.150;-2.134;2023-05-10T10:17:51;12.60;99.90
23629;DHT22;11991;57.150;-2.134;2023-05-10T10:20:21;12.70;99.90
23629;DHT22;11991;57.150;-2.134;2023-05-10T10:22:49;12.70;99.90
23629;DHT22;11991;57.150;-2.134;2023-05-10T10:25:17;12.70;99.90
23629;DHT22;11991;57.150;-2.134;2023-05-10T10:33:28;12.70;99.90
23629;DHT22;11991;57.150;-2.134;2023-05-10T10:35:58;12.80;99.90
23629;DHT22;11991;57.150;-2.134;2023-05-10T10:41:31;12.90;99.90
23629;DHT22;11991;57.150;-2.134;2023-05-10T10:47:07;13.10;99.90
23629;DHT22;11991;57.150;-2.134;2023-05-10T10:49:44;13.20;99.90
23629;DHT22;11991;57.150;-2.134;2023-05-10T10:52:27;13.20;99.90
23629;DHT22;11991;57.150;-2.134;2023-05-10T10:55:04;13.30;99.90
23629;DHT22;11991;57.150;-2.134;2023-05-10T10:57:42;13.40;99.90
23629;DHT22;11991;57.150;-2.134;2023-05-10T11:08:17;13.70;99.90
23629;DHT22;11991;57.150;-2.134;2023-05-10T11:13:40;13.80;99.90
23629;DHT22;11991;57.150;-2.134;2023-05-10T11:16:23;13.70;99.90
23629;DHT22;11991;57.150;-2.134;2023-05-10T11:24:33;13.70;99.90
23629;DHT22;11991;57.150;-2.134;2023-05-10T11:27:00;13.80;99.90
23629;DHT22;11991;57.150;-2.134;2023-05-10T11:29:27;13.80;99.90
23629;DHT22;11991;57.150;-2.134;2023-05-10T11:31:57;13.80;99.90
23629;DHT22;11991;57.150;-2.134;2023-05-10T11:34:30;13.80;99.90
23629;DHT22;11991;57.150;-2.134;2023-05-10T11:37:00;13.80;99.90
23629;DHT22;11991;57.150;-2.134;2023-05-10T11:39:29;13.90;99.90
23629;DHT22;11991;57.150;-2.134;2023-05-10T11:41:57;13.90;99.90
23629;DHT22;11991;57.150;-2.134;2023-05-10T11:44:32;14.00;99.90
23629;DHT22;11991;57.150;-2.134;2023-05-10T11:47:00;14.10;99.90
23629;DHT22;11991;57.150;-2.134;2023-05-10T11:49:28;14.10;99.90
23629;DHT22;11991;57.150;-2.134;2023-05-10T11:52:13;14.10;99.90
23629;DHT22;11991;57.150;-2.134;2023-05-10T11:54:54;14.00;99.90
23629;DHT22;11991;57.150;-2.134;2023-05-10T11:57:26;14.10;99.90
23629;DHT22;11991;57.150;-2.134;2023-05-10T11:59:54;14.10;99.90
23629;DHT22;11991;57.150;-2.134;2023-05-10T12:02:21;14.10;99.90
23629;DHT22;11991;57.150;-2.134;2023-05-10T12:04:50;14.10;99.90
23629;DHT22;11991;57.150;-2.134;2023-05-10T12:07:17;14.10;99.90
23629;DHT22;11991;57.150;-2.134;2023-05-10T12:10:01;14.10;99.90
23629;DHT22;11991;57.150;-2.134;2023-05-10T12:12:38;14.00;99.90
23629;DHT22;11991;57.150;-2.134;2023-05-10T12:15:20;13.90;99.90
23629;DHT22;11991;57.150;-2.134;2023-05-10T12:17:48;13.90;99.90
23629;DHT22;11991;57.150;-2.134;2023-05-10T12:20:16;13.90;99.90
23629;DHT22;11991;57.150;-2.134;2023-05-10T12:22:45;13.90;99.90
23629;DHT22;11991;57.150;-2.134;2023-05-10T12:25:12;13.90;99.90
23629;DHT22;11991;57.150;-2.134;2023-05-10T12:27:39;13.80;99.90
23629;DHT22;11991;57.150;-2.134;2023-05-10T12:30:07;13.80;99.90
23629;DHT22;11991;57.150;-2.134;2023-05-10T12:32:41;13.80;99.90
23629;DHT22;11991;57.150;-2.134;2023-05-10T12:35:09;13.90;99.90
23629;DHT22;11991;57.150;-2.134;2023-05-10T12:37:36;13.90;99.90
23629;DHT22;11991;57.150;-2.134;2023-05-10T12:40:07;14.00;99.90
23629;DHT22;11991;57.150;-2.134;2023-05-10T12:42:35;13.90;99.90
23629;DHT22;11991;57.150;-2.134;2023-05-10T12:45:04;14.00;99.90
23629;DHT22;11991;57.150;-2.134;2023-05-10T12:47:32;14.10;99.90
23629;DHT22;11991;57.150;-2.134;2023-05-10T12:50:00;14.20;99.90
23629;DHT22;11991;57.150;-2.134;2023-05-10T12:52:28;14.20;99.90
23629;DHT22;11991;57.150;-2.134;2023-05-10T12:54:55;14.30;99.90
23629;DHT22;11991;57.150;-2.134;2023-05-10T12:57:23;14.30;99.90
23629;DHT22;11991;57.150;-2.134;2023-05-10T12:59:50;14.30;99.90
23629;DHT22;11991;57.150;-2.134;2023-05-10T13:02:17;14.40;99.90
23629;DHT22;11991;57.150;-2.134;2023-05-10T13:04:48;14.40;99.90
23629;DHT22;11991;57.150;-2.134;2023-05-10T13:07:16;14.50;99.90
23629;DHT22;11991;57.150;-2.134;2023-05-10T13:09:44;14.50;99.90
23629;DHT22;11991;57.150;-2.134;2023-05-10T13:12:11;14.60;99.90
23629;DHT22;11991;57.150;-2.134;2023-05-10T13:14:38;14.60;99.90
23629;DHT22;11991;57.150;-2.134;2023-05-10T13:17:07;14.60;99.90
23629;DHT22;11991;57.150;-2.134;2023-05-10T13:19:34;14.70;99.90
23629;DHT22;11991;57.150;-2.134;2023-05-10T13:22:02;14.70;99.90
23629;DHT22;11991;57.150;-2.134;2023-05-10T13:24:29;14.80;99.90
23629;DHT22;11991;57.150;-2.134;2023-05-10T13:26:56;14.80;99.90
23629;DHT22;11991;57.150;-2.134;2023-05-10T13:29:23;14.90;99.90
23629;DHT22;11991;57.150;-2.134;2023-05-10T13:31:51;14.90;99.90
23629;DHT22;11991;57.150;-2.134;2023-05-10T13:34:18;15.00;99.90
23629;DHT22;11991;57.150;-2.134;2023-05-10T13:36:47;15.00;99.90
23629;DHT22;11991;57.150;-2.134;2023-05-10T13:39:15;15.00;99.90
23629;DHT22;11991;57.150;-2.134;2023-05-10T13:41:43;15.00;99.90
23629;DHT22;11991;57.150;-2.134;2023-05-10T13:44:12;15.00;99.90
23629;DHT22;11991;57.150;-2.134;2023-05-10T13:46:41;15.10;99.90
23629;DHT22;11991;57.150;-2.134;2023-05-10T13:49:12;15.20;99.90
23629;DHT22;11991;57.150;-2.134;2023-05-10T13:51:39;15.20;99.90
23629;DHT22;11991;57.150;-2.134;2023-05-10T13:54:06;15.30;99.90
23629;DHT22;11991;57.150;-2.134;2023-05-10T13:56:33;15.40;99.90
23629;DHT22;11991;57.150;-2.134;2023-05-10T13:59:00;15.40;99.90
23629;DHT22;11991;57.150;-2.134;2023-05-10T14:01:27;15.40;99.90
23629;DHT22;11991;57.150;-2.134;2023-05-10T14:03:54;15.50;99.90
23629;DHT22;11991;57.150;-2.134;2023-05-10T14:06:22;15.60;99.90
23629;DHT22;11991;57.150;-2.134;2023-05-10T14:08:49;15.70;99.90
23629;DHT22;11991;57.150;-2.134;2023-05-10T14:11:16;15.70;99.90
23629;DHT22;11991;57.150;-2.134;2023-05-10T14:13:43;15.80;99.90
23629;DHT22;11991;57.150;-2.134;2023-05-10T14:16:10;15.90;99.90
23629;DHT22;11991;57.150;-2.134;2023-05-10T14:18:37;15.90;99.90
23629;DHT22;11991;57.150;-2.134;2023-05-10T14:21:04;16.00;99.90
23629;DHT22;11991;57.150;-2.134;2023-05-10T14:23:32;16.10;99.90
23629;DHT22;11991;57.150;-2.134;2023-05-10T14:25:59;16.20;99.90
23629;DHT22;11991;57.150;-2.134;2023-05-10T14:28:26;16.20;99.90
23629;DHT22;11991;57.150;-2.134;2023-05-10T14:30:53;16.20;99.90
23629;DHT22;11991;57.150;-2.134;2023-05-10T14:33:20;16.10;99.90
23629;DHT22;11991;57.150;-2.134;2023-05-10T14:35:47;16.10;99.90
23629;DHT22;11991;57.150;-2.134;2023-05-10T14:38:15;16.10;99.90
23629;DHT22;11991;57.150;-2.134;2023-05-10T14:40:42;16.00;99.90
23629;DHT22;11991;57.150;-2.134;2023-05-10T14:43:09;16.10;99.90
23629;DHT22;11991;57.150;-2.134;2023-05-10T14:45:36;16.00;99.90
23629;DHT22;11991;57.150;-2.134;2023-05-10T14:48:03;15.90;99.90
23629;DHT22;11991;57.150;-2.134;2023-05-10T14:50:32;15.90;99.90
23629;DHT22;11991;57.150;-2.134;2023-05-10T14:53:03;15.80;99.90
23629;DHT22;11991;57.150;-2.134;2023-05-10T14:55:30;15.70;99.90
23629;DHT22;11991;57.150;-2.134;2023-05-10T14:57:57;15.80;99.90
23629;DHT22;11991;57.150;-2.134;2023-05-10T15:00:25;15.80;99.90
23629;DHT22;11991;57.150;-2.134;2023-05-10T15:02:52;15.80;99.90
23629;DHT22;11991;57.150;-2.134;2023-05-10T15:05:20;15.80;99.90
23629;DHT22;11991;57.150;-2.134;2023-05-10T15:07:48;15.90;99.90
23629;DHT22;11991;57.150;-2.134;2023-05-10T15:10:15;15.90;99.90
23629;DHT22;11991;57.150;-2.134;2023-05-10T15:12:42;15.90;99.90
23629;DHT22;11991;57.150;-2.134;2023-05-10T15:15:10;15.90;99.90
23629;DHT22;11991;57.150;-2.134;2023-05-10T15:17:37;15.90;99.90
23629;DHT22;11991;57.150;-2.134;2023-05-10T15:20:04;15.90;99.90
23629;DHT22;11991;57.150;-2.134;2023-05-10T15:22:32;15.90;99.90
23629;DHT22;11991;57.150;-2.134;2023-05-10T15:25:00;15.90;99.90
23629;DHT22;11991;57.150;-2.134;2023-05-10T15:27:27;15.90;99.90
23629;DHT22;11991;57.150;-2.134;2023-05-10T15:29:54;15.80;99.90
23629;DHT22;11991;57.150;-2.134;2023-05-10T15:32:22;15.80;99.90
23629;DHT22;11991;57.150;-2.134;2023-05-10T15:34:49;15.70;99.90
23629;DHT22;11991;57.150;-2.134;2023-05-10T15:37:16;15.60;99.90
23629;DHT22;11991;57.150;-2.134;2023-05-10T15:39:43;15.50;99.90
23629;DHT22;11991;57.150;-2.134;2023-05-10T15:42:12;15.40;99.90
23629;DHT22;11991;57.150;-2.134;2023-05-10T15:44:39;15.20;99.90
23629;DHT22;11991;57.150;-2.134;2023-05-10T15:47:06;15.10;99.90
23629;DHT22;11991;57.150;-2.134;2023-05-10T15:49:33;15.00;99.90
23629;DHT22;11991;57.150;-2.134;2023-05-10T15:52:00;14.90;99.90
23629;DHT22;11991;57.150;-2.134;2023-05-10T15:54:28;14.80;99.90
23629;DHT22;11991;57.150;-2.134;2023-05-10T15:56:55;14.70;99.90
23629;DHT22;11991;57.150;-2.134;2023-05-10T15:59:22;14.70;99.90
23629;DHT22;11991;57.150;-2.134;2023-05-10T16:01:49;14.60;99.90
23629;DHT22;11991;57.150;-2.134;2023-05-10T16:04:16;14.50;99.90
23629;DHT22;11991;57.150;-2.134;2023-05-10T16:06:44;14.50;99.90
23629;DHT22;11991;57.150;-2.134;2023-05-10T16:09:11;14.50;99.90
23629;DHT22;11991;57.150;-2.134;2023-05-10T16:11:38;14.40;99.90
23629;DHT22;11991;57.150;-2.134;2023-05-10T16:14:05;14.40;99.90
23629;DHT22;11991;57.150;-2.134;2023-05-10T16:16:33;14.30;99.90